createdAt,value
2016-02-23T00:00:11.622Z,68.79
2016-02-23T00:01:11.594Z,68.79
2016-02-23T00:02:11.534Z,68.51
2016-02-23T00:03:11.475Z,68.41
2016-02-23T00:04:11.430Z,68.79
2016-02-23T00:05:11.378Z,68.7
2016-02-23T00:06:11.319Z,68.98
2016-02-23T00:07:11.275Z,69.08
2016-02-23T00:08:11.214Z,69.46
2016-02-23T00:09:11.172Z,69.65
2016-02-23T00:10:11.111Z,69.65
2016-02-23T00:11:11.082Z,69.46
2016-02-23T00:12:11.008Z,70.03
2016-02-23T00:13:10.932Z,70.13
2016-02-23T00:14:10.935Z,70.13
2016-02-23T00:15:10.874Z,69.93
2016-02-23T00:16:10.783Z,70.32
2016-02-23T00:17:10.771Z,69.93
2016-02-23T00:18:10.757Z,70.13
2016-02-23T00:19:10.635Z,70.32
2016-02-23T00:20:10.591Z,70.32
2016-02-23T00:21:10.579Z,70.51
2016-02-23T00:22:10.467Z,70.42
2016-02-23T00:23:10.444Z,70.7
2016-02-23T00:24:10.341Z,70.61
2016-02-23T00:25:10.316Z,71.27
2016-02-23T00:26:10.230Z,71.37
2016-02-23T00:27:10.193Z,71.08
2016-02-23T00:28:10.113Z,71.18
2016-02-23T00:29:10.049Z,71.18
2016-02-23T00:30:10.017Z,71.08
2016-02-23T00:31:10.032Z,71.27
2016-02-23T00:32:09.906Z,71.27
2016-02-23T00:33:09.844Z,71.14
2016-02-23T00:34:09.799Z,71.43
2016-02-23T00:35:09.723Z,71.84
2016-02-23T00:36:09.677Z,72.09
2016-02-23T00:37:09.616Z,71.91
2016-02-23T00:38:09.555Z,72
2016-02-23T00:39:09.510Z,72.09
2016-02-23T00:40:09.513Z,72.19
2016-02-23T00:41:09.405Z,72.09
2016-02-23T00:42:09.429Z,71.91
2016-02-23T00:43:09.354Z,72
2016-02-23T00:44:09.357Z,72
2016-02-23T00:45:09.312Z,72.09
2016-02-23T00:46:09.238Z,72.09
2016-02-23T00:47:09.131Z,72.38
2016-02-23T00:48:09.149Z,72.28
2016-02-23T00:49:08.981Z,72.57
2016-02-23T00:50:08.951Z,72.48
2016-02-23T00:51:08.969Z,72.86
2016-02-23T00:52:08.847Z,72.57
2016-02-23T00:53:08.788Z,72.67
2016-02-23T00:54:08.759Z,72.48
2016-02-23T00:55:08.700Z,72.48
2016-02-23T00:56:08.639Z,72.48
2016-02-23T00:57:08.658Z,72.57
2016-02-23T00:58:08.552Z,72.38
2016-02-23T00:59:08.538Z,72.96
2016-02-23T01:00:08.432Z,72.96
2016-02-23T01:01:08.435Z,72.67
2016-02-23T01:02:08.312Z,72.57
2016-02-23T01:03:08.268Z,72.96
2016-02-23T01:04:08.364Z,73.05
2016-02-23T01:05:08.288Z,73.47
2016-02-23T01:06:08.338Z,73.14
2016-02-23T01:07:08.091Z,73.14
2016-02-23T01:08:08.046Z,73.24
2016-02-23T01:09:07.987Z,73.24
2016-02-23T01:10:07.912Z,73.33
2016-02-23T01:11:07.929Z,73.14
2016-02-23T01:12:07.840Z,73.14
2016-02-23T01:13:07.779Z,73.14
2016-02-23T01:14:07.719Z,73.81
2016-02-23T01:15:07.675Z,74.01
2016-02-23T01:16:07.600Z,73.62
2016-02-23T01:17:07.556Z,73.81
2016-02-23T01:18:07.480Z,73.81
2016-02-23T01:19:07.514Z,73.81
2016-02-23T01:20:07.376Z,73.62
2016-02-23T01:21:07.379Z,74.1
2016-02-23T01:22:07.381Z,74.01
2016-02-23T01:23:07.259Z,74.1
2016-02-23T01:24:07.261Z,73.81
2016-02-23T01:25:07.156Z,73.81
2016-02-23T01:26:07.189Z,74.01
2016-02-23T01:27:07.050Z,74.1
2016-02-23T01:28:07.022Z,74.1
2016-02-23T01:29:06.931Z,74.19
2016-02-23T01:30:06.888Z,74.19
2016-02-23T01:31:06.874Z,73.91
2016-02-23T01:32:06.846Z,74.19
2016-02-23T01:33:06.771Z,74.57
2016-02-23T01:34:06.680Z,74.48
2016-02-23T01:35:06.619Z,74.77
2016-02-23T01:36:06.590Z,74.57
2016-02-23T01:37:06.563Z,74.67
2016-02-23T01:38:06.502Z,75.05
2016-02-23T01:39:06.427Z,74.77
2016-02-23T01:40:06.430Z,74.48
2016-02-23T01:41:06.401Z,75.34
2016-02-23T01:42:06.310Z,75.24
2016-02-23T01:43:06.219Z,75.53
2016-02-23T01:44:06.409Z,75.34
2016-02-23T01:45:06.162Z,75.34
2016-02-23T01:46:06.056Z,75.15
2016-02-23T01:47:05.995Z,75.34
2016-02-23T01:48:05.982Z,75.34
2016-02-23T01:49:05.907Z,75.43
2016-02-23T01:50:05.894Z,75.24
2016-02-23T01:51:05.834Z,75.34
2016-02-23T01:52:05.728Z,75.24
2016-02-23T01:53:05.714Z,75.81
2016-02-23T01:54:05.655Z,75.15
2016-02-23T01:55:05.580Z,75.34
2016-02-23T01:56:05.566Z,75.53
2016-02-23T01:57:05.507Z,75.24
2016-02-23T01:58:05.463Z,75.24
2016-02-23T01:59:05.402Z,75.24
2016-02-23T02:00:05.328Z,75.24
2016-02-23T02:01:05.283Z,75.24
2016-02-23T02:02:05.223Z,75.24
2016-02-23T02:03:05.179Z,75.34
2016-02-23T02:04:05.150Z,75.34
2016-02-23T02:05:05.107Z,75.34
2016-02-23T02:06:05.016Z,75.43
2016-02-23T02:07:04.971Z,75.53
2016-02-23T02:08:04.990Z,75.24
2016-02-23T02:09:04.883Z,75.15
2016-02-23T02:10:04.870Z,75.53
2016-02-23T02:11:04.793Z,75.05
2016-02-23T02:12:04.782Z,75.24
2016-02-23T02:13:04.674Z,75.43
2016-02-23T02:14:04.615Z,75.34
2016-02-23T02:15:04.587Z,75.43
2016-02-23T02:16:04.557Z,75.24
2016-02-23T02:17:04.451Z,75.15
2016-02-23T02:18:04.407Z,75.05
2016-02-23T02:19:04.347Z,75.15
2016-02-23T02:20:04.303Z,75.34
2016-02-23T02:21:04.275Z,75.15
2016-02-23T02:22:04.278Z,75.15
2016-02-23T02:23:04.233Z,75.05
2016-02-23T02:24:04.095Z,75.53
2016-02-23T02:25:04.051Z,75.43
2016-02-23T02:26:04.006Z,75.05
2016-02-23T02:27:03.916Z,75.05
2016-02-23T02:28:03.887Z,75.43
2016-02-23T02:29:03.842Z,75.43
2016-02-23T02:30:03.788Z,75.72
2016-02-23T02:31:03.713Z,75.62
2016-02-23T02:32:03.652Z,75.62
2016-02-23T02:33:03.608Z,75.43
2016-02-23T02:34:03.596Z,75.34
2016-02-23T02:35:03.535Z,75.59
2016-02-23T02:36:03.476Z,75.05
2016-02-23T02:37:03.416Z,75.24
2016-02-23T02:38:03.418Z,75.24
2016-02-23T02:39:03.360Z,75.2
2016-02-23T02:40:03.252Z,75.3
2016-02-23T02:41:03.176Z,75.72
2016-02-23T02:42:03.165Z,75.78
2016-02-23T02:43:03.182Z,75.59
2016-02-23T02:44:03.028Z,76.1
2016-02-23T02:45:03.047Z,75.3
2016-02-23T02:46:02.987Z,75.68
2016-02-23T02:47:02.880Z,75.68
2016-02-23T02:48:02.899Z,75.3
2016-02-23T02:49:02.776Z,75.68
2016-02-23T02:50:02.716Z,75.3
2016-02-23T02:51:02.689Z,75.3
2016-02-23T02:52:02.628Z,76.06
2016-02-23T02:53:02.599Z,75.3
2016-02-23T02:54:02.509Z,75.3
2016-02-23T02:55:02.449Z,75.3
2016-02-23T02:56:02.389Z,75.68
2016-02-23T02:57:02.314Z,75.68
2016-02-23T02:58:02.285Z,75.2
2016-02-23T02:59:02.272Z,75.49
2016-02-23T03:00:02.259Z,75.96
2016-02-23T03:01:02.121Z,75.49
2016-02-23T03:02:02.139Z,75.3
2016-02-23T03:03:02.127Z,75.2
2016-02-23T03:04:01.989Z,75.01
2016-02-23T03:05:01.944Z,75.11
2016-02-23T03:06:01.900Z,75.01
2016-02-23T03:07:01.841Z,74.35
2016-02-23T03:08:01.796Z,74.63
2016-02-23T03:09:00.987Z,74.44
2016-02-23T03:10:01.707Z,74.06
2016-02-23T03:11:01.617Z,74.06
2016-02-23T03:12:01.634Z,73.96
2016-02-23T03:13:01.498Z,73.39
2016-02-23T03:14:01.484Z,73.11
2016-02-23T03:15:01.378Z,72.92
2016-02-23T03:16:01.349Z,72.72
2016-02-23T03:17:01.398Z,72.53
2016-02-23T03:18:01.229Z,72.53
2016-02-23T03:19:01.185Z,72.16
2016-02-23T03:20:01.125Z,72.06
2016-02-23T03:21:01.097Z,71.96
2016-02-23T03:22:01.115Z,72.06
2016-02-23T03:23:00.945Z,71.77
2016-02-23T03:24:00.934Z,71.48
2016-02-23T03:25:00.920Z,71.2
2016-02-23T03:26:00.891Z,71.2
2016-02-23T03:27:00.879Z,71.11
2016-02-23T03:28:00.741Z,71.01
2016-02-23T03:29:00.634Z,71.11
2016-02-23T03:30:00.605Z,70.88
2016-02-23T03:31:00.608Z,71.17
2016-02-23T03:32:00.501Z,70.78
2016-02-23T03:33:00.442Z,70.97
2016-02-23T03:34:00.382Z,70.78
2016-02-23T03:35:00.321Z,70.69
2016-02-23T03:36:00.310Z,70.69
2016-02-23T03:37:00.202Z,70.69
2016-02-23T03:38:00.158Z,70.78
2016-02-23T03:39:00.129Z,70.88
2016-02-23T03:40:00.085Z,70.59
2016-02-23T03:41:00.010Z,70.4
2016-02-23T03:42:00.029Z,70.21
2016-02-23T03:42:59.953Z,70.4
2016-02-23T03:43:59.831Z,70.02
2016-02-23T03:44:59.786Z,69.64
2016-02-23T03:45:59.743Z,69.64
2016-02-23T03:46:59.776Z,69.54
2016-02-23T03:47:59.637Z,69.64
2016-02-23T03:48:59.610Z,69.45
2016-02-23T03:49:59.534Z,69.64
2016-02-23T03:50:59.537Z,69.26
2016-02-23T03:51:59.415Z,69.64
2016-02-23T03:52:59.401Z,70.02
2016-02-23T03:53:59.358Z,70.31
2016-02-23T03:54:59.345Z,70.21
2016-02-23T03:55:59.238Z,70.31
2016-02-23T03:56:59.161Z,70.21
2016-02-23T03:57:59.103Z,70.21
2016-02-23T03:58:59.027Z,70.31
2016-02-23T03:59:59.108Z,70.31
2016-02-23T04:00:58.955Z,70.21
2016-02-23T04:01:58.957Z,70.21
2016-02-23T04:02:58.819Z,70.4
2016-02-23T04:03:58.775Z,70.59
2016-02-23T04:04:58.824Z,70.4
2016-02-23T04:05:58.765Z,70.4
2016-02-23T04:06:58.596Z,70.21
2016-02-23T04:07:58.551Z,70.4
2016-02-23T04:08:58.507Z,70.21
2016-02-23T04:09:58.510Z,70.4
2016-02-23T04:10:58.435Z,70.59
2016-02-23T04:11:58.359Z,70.4
2016-02-23T04:12:58.409Z,70.59
2016-02-23T04:13:58.255Z,70.4
2016-02-23T04:14:58.195Z,70.21
2016-02-23T04:15:58.167Z,70.78
2016-02-23T04:16:58.123Z,70.59
2016-02-23T04:17:57.875Z,70.59
2016-02-23T04:18:57.987Z,70.97
2016-02-23T04:19:57.943Z,70.69
2016-02-23T04:20:57.883Z,70.97
2016-02-23T04:21:57.839Z,71.17
2016-02-23T04:22:57.764Z,71.36
2016-02-23T04:23:57.719Z,71.73
2016-02-23T04:24:57.675Z,71.73
2016-02-23T04:25:57.600Z,71.26
2016-02-23T04:26:57.571Z,71.64
2016-02-23T04:27:57.528Z,72.12
2016-02-23T04:28:57.452Z,71.73
2016-02-23T04:29:57.391Z,72.02
2016-02-23T04:30:57.395Z,72.21
2016-02-23T04:31:57.335Z,72.02
2016-02-23T04:32:57.306Z,71.64
2016-02-23T04:33:57.184Z,72.6
2016-02-23T04:34:57.155Z,72.02
2016-02-23T04:35:57.111Z,72.21
2016-02-23T04:36:57.020Z,72.21
2016-02-23T04:37:56.960Z,72.41
2016-02-23T04:38:56.915Z,72.31
2016-02-23T04:39:56.856Z,72.21
2016-02-23T04:40:56.827Z,72.21
2016-02-23T04:41:56.783Z,72.21
2016-02-23T04:42:56.723Z,72.41
2016-02-23T04:43:56.648Z,72.12
2016-02-23T04:44:56.620Z,72.12
2016-02-23T04:45:56.560Z,72.21
2016-02-23T04:46:56.485Z,72.41
2016-02-23T04:47:56.440Z,72.21
2016-02-23T04:48:56.395Z,72.41
2016-02-23T04:49:56.337Z,72.6
2016-02-23T04:50:56.307Z,72.41
2016-02-23T04:51:56.247Z,72.6
2016-02-23T04:52:56.188Z,72.69
2016-02-23T04:53:56.128Z,72.41
2016-02-23T04:54:56.068Z,72.5
2016-02-23T04:55:56.025Z,72.41
2016-02-23T04:56:55.964Z,72.6
2016-02-23T04:57:55.920Z,72.41
2016-02-23T04:58:55.861Z,72.5
2016-02-23T04:59:55.863Z,72.5
2016-02-23T05:00:55.741Z,72.69
2016-02-23T05:01:55.696Z,72.6
2016-02-23T05:02:55.684Z,72.5
2016-02-23T05:03:55.671Z,72.5
2016-02-23T05:04:55.549Z,72.6
2016-02-23T05:05:55.504Z,72.5
2016-02-23T05:06:55.475Z,72.6
2016-02-23T05:07:55.385Z,72.69
2016-02-23T05:08:55.403Z,72.41
2016-02-23T05:09:55.280Z,72.6
2016-02-23T05:10:55.220Z,72.78
2016-02-23T05:11:55.193Z,72.69
2016-02-23T05:12:55.101Z,72.5
2016-02-23T05:13:55.073Z,72.6
2016-02-23T05:14:55.044Z,72.6
2016-02-23T05:15:54.968Z,72.78
2016-02-23T05:16:54.893Z,72.69
2016-02-23T05:17:54.865Z,72.88
2016-02-23T05:18:54.804Z,72.97
2016-02-23T05:19:54.760Z,72.6
2016-02-23T05:20:54.701Z,72.78
2016-02-23T05:21:54.640Z,72.41
2016-02-23T05:22:54.597Z,72.41
2016-02-23T05:23:54.537Z,72.6
2016-02-23T05:24:54.509Z,72.78
2016-02-23T05:25:54.417Z,72.31
2016-02-23T05:26:54.373Z,72.5
2016-02-23T05:27:54.360Z,72.41
2016-02-23T05:28:54.269Z,72.41
2016-02-23T05:29:54.225Z,72.5
2016-02-23T05:30:54.165Z,72.6
2016-02-23T05:31:54.089Z,72.69
2016-02-23T05:32:54.045Z,72.31
2016-02-23T05:33:54.017Z,72.31
2016-02-23T05:34:53.957Z,71.83
2016-02-23T05:35:53.897Z,72.02
2016-02-23T05:36:53.838Z,72.12
2016-02-23T05:37:53.809Z,71.73
2016-02-23T05:38:53.733Z,72.02
2016-02-23T05:39:53.689Z,72.02
2016-02-23T05:40:53.613Z,72.02
2016-02-23T05:41:53.586Z,72.08
2016-02-23T05:42:53.557Z,72.5
2016-02-23T05:43:53.529Z,72.27
2016-02-23T05:44:53.437Z,71.8
2016-02-23T05:45:53.362Z,71.98
2016-02-23T05:46:53.349Z,72.08
2016-02-23T05:47:53.273Z,71.98
2016-02-23T05:48:53.213Z,72.27
2016-02-23T05:49:53.138Z,71.89
2016-02-23T05:50:53.093Z,72.08
2016-02-23T05:51:53.019Z,71.89
2016-02-23T05:52:52.959Z,71.42
2016-02-23T05:53:52.914Z,71.42
2016-02-23T05:54:52.854Z,70.94
2016-02-23T05:55:52.795Z,71.22
2016-02-23T05:56:52.781Z,71.22
2016-02-23T05:57:52.706Z,71.32
2016-02-23T05:58:52.662Z,71.22
2016-02-23T05:59:52.586Z,71.22
2016-02-23T06:00:52.575Z,71.32
2016-02-23T06:01:52.514Z,71.42
2016-02-23T06:02:52.469Z,71.36
2016-02-23T06:03:52.363Z,71.32
2016-02-23T06:04:52.335Z,71.17
2016-02-23T06:05:52.275Z,71.13
2016-02-23T06:06:52.355Z,70.94
2016-02-23T06:07:52.171Z,70.5
2016-02-23T06:08:52.096Z,70.47
2016-02-23T06:09:52.114Z,70.47
2016-02-23T06:10:51.991Z,70.56
2016-02-23T06:11:51.822Z,70.65
2016-02-23T06:12:51.950Z,70.65
2016-02-23T06:13:51.874Z,70.65
2016-02-23T06:14:51.799Z,70.65
2016-02-23T06:15:51.786Z,70.37
2016-02-23T06:16:51.804Z,70.47
2016-02-23T06:17:51.652Z,70.27
2016-02-23T06:18:51.623Z,70.37
2016-02-23T06:19:51.532Z,70.18
2016-02-23T06:20:51.487Z,70.37
2016-02-23T06:21:51.459Z,69.99
2016-02-23T06:22:51.414Z,69.99
2016-02-23T06:23:51.339Z,69.99
2016-02-23T06:24:51.420Z,69.89
2016-02-23T06:25:51.250Z,69.89
2016-02-23T06:26:51.207Z,70.27
2016-02-23T06:27:51.115Z,69.99
2016-02-23T06:28:51.056Z,70.08
2016-02-23T06:29:51.027Z,70.27
2016-02-23T06:30:50.967Z,69.7
2016-02-23T06:31:50.908Z,70.18
2016-02-23T06:32:50.831Z,70.08
2016-02-23T06:33:50.803Z,69.99
2016-02-23T06:34:50.775Z,69.89
2016-02-23T06:35:50.684Z,70.18
2016-02-23T06:36:50.609Z,70.18
2016-02-23T06:37:50.580Z,69.89
2016-02-23T06:38:50.519Z,70.08
2016-02-23T06:39:50.538Z,69.89
2016-02-23T06:40:50.463Z,69.7
2016-02-23T06:41:50.419Z,70.08
2016-02-23T06:42:50.312Z,70.08
2016-02-23T06:43:50.221Z,70.08
2016-02-23T06:44:50.193Z,70.27
2016-02-23T06:45:50.163Z,70.37
2016-02-23T06:46:50.119Z,69.99
2016-02-23T06:47:50.029Z,70.27
2016-02-23T06:48:49.968Z,70.18
2016-02-23T06:49:49.924Z,69.89
2016-02-23T06:50:49.880Z,70.08
2016-02-23T06:51:49.820Z,70.27
2016-02-23T06:52:49.885Z,70.18
2016-02-23T06:53:49.685Z,70.18
2016-02-23T06:54:49.672Z,70.18
2016-02-23T06:55:49.582Z,70.08
2016-02-23T06:56:48.818Z,70.37
2016-02-23T06:57:49.898Z,70.18
2016-02-23T06:58:49.637Z,70.27
2016-02-23T06:59:49.483Z,70.08
2016-02-23T07:00:49.313Z,70.18
2016-02-23T07:01:49.269Z,70.18
2016-02-23T07:02:49.209Z,70.47
2016-02-23T07:03:49.165Z,69.99
2016-02-23T07:04:49.247Z,70.56
2016-02-23T07:05:49.077Z,70.08
2016-02-23T07:06:49.002Z,70.08
2016-02-23T07:07:49.066Z,69.93
2016-02-23T07:08:48.929Z,70.08
2016-02-23T07:09:49.291Z,69.99
2016-02-23T07:10:48.777Z,69.99
2016-02-23T07:11:48.765Z,70.27
2016-02-23T07:12:48.689Z,69.79
2016-02-23T07:13:48.880Z,70.08
2016-02-23T07:14:48.569Z,69.99
2016-02-23T07:15:48.557Z,69.6
2016-02-23T07:16:48.466Z,69.42
2016-02-23T07:17:48.390Z,69.32
2016-02-23T07:18:48.534Z,69.6
2016-02-23T07:19:48.333Z,69.64
2016-02-23T07:20:48.273Z,69.7
2016-02-23T07:21:48.214Z,69.51
2016-02-23T07:22:48.123Z,69.51
2016-02-23T07:23:48.125Z,69.32
2016-02-23T07:24:48.018Z,68.98
2016-02-23T07:25:47.974Z,69.17
2016-02-23T07:26:47.961Z,68.98
2016-02-23T07:27:47.870Z,68.98
2016-02-23T07:28:47.982Z,68.88
2016-02-23T07:29:47.782Z,68.69
2016-02-23T07:30:47.723Z,68.88
2016-02-23T07:31:47.695Z,68.59
2016-02-23T07:32:47.618Z,68.4
2016-02-23T07:33:47.527Z,68.4
2016-02-23T07:34:47.515Z,68.78
2016-02-23T07:35:47.455Z,69.07
2016-02-23T07:36:47.379Z,68.78
2016-02-23T07:37:47.350Z,68.59
2016-02-23T07:38:47.291Z,68.4
2016-02-23T07:39:47.247Z,68.4
2016-02-23T07:40:47.312Z,68.69
2016-02-23T07:41:47.205Z,68.21
2016-02-23T07:42:47.130Z,68.4
2016-02-23T07:43:46.992Z,68.4
2016-02-23T07:44:47.088Z,68.4
2016-02-23T07:45:46.949Z,68.69
2016-02-23T07:46:47.062Z,68.4
2016-02-23T07:47:46.925Z,68.5
2016-02-23T07:48:46.755Z,68.3
2016-02-23T07:49:46.977Z,68.4
2016-02-23T07:50:46.776Z,68.5
2016-02-23T07:51:46.654Z,68.12
2016-02-23T07:52:46.735Z,68.5
2016-02-23T07:53:46.503Z,68.5
2016-02-23T07:54:46.459Z,68.21
2016-02-23T07:55:46.399Z,68.21
2016-02-23T07:56:46.308Z,68.4
2016-02-23T07:57:46.264Z,68.4
2016-02-23T07:58:46.298Z,68.3
2016-02-23T07:59:46.520Z,68.5
2016-02-23T08:00:46.115Z,68.98
2016-02-23T08:01:46.040Z,68.4
2016-02-23T08:02:45.981Z,69.07
2016-02-23T08:03:45.951Z,68.88
2016-02-23T08:04:45.875Z,68.5
2016-02-23T08:05:45.816Z,68.4
2016-02-23T08:06:45.788Z,68.59
2016-02-23T08:07:45.744Z,69.17
2016-02-23T08:08:45.653Z,69.26
2016-02-23T08:09:45.608Z,69.07
2016-02-23T08:10:45.564Z,68.5
2016-02-23T08:11:45.505Z,68.78
2016-02-23T08:12:45.460Z,68.59
2016-02-23T08:13:45.400Z,68.59
2016-02-23T08:14:45.355Z,68.88
2016-02-23T08:15:45.296Z,68.88
2016-02-23T08:16:45.236Z,68.3
2016-02-23T08:17:45.193Z,68.59
2016-02-23T08:18:45.180Z,68.4
2016-02-23T08:19:45.057Z,68.3
2016-02-23T08:20:45.122Z,68.59
2016-02-23T08:21:44.969Z,68.59
2016-02-23T08:22:44.940Z,68.59
2016-02-23T08:23:44.849Z,68.5
2016-02-23T08:24:44.821Z,68.5
2016-02-23T08:25:44.743Z,68.4
2016-02-23T08:26:44.729Z,68.5
2016-02-23T08:27:44.654Z,68.3
2016-02-23T08:28:44.578Z,67.64
2016-02-23T08:29:44.504Z,68.4
2016-02-23T08:30:44.490Z,68.12
2016-02-23T08:31:44.446Z,67.93
2016-02-23T08:32:44.386Z,68.12
2016-02-23T08:33:44.296Z,68.34
2016-02-23T08:34:44.251Z,68.5
2016-02-23T08:35:44.206Z,68.05
2016-02-23T08:36:44.163Z,68.02
2016-02-23T08:37:44.087Z,67.64
2016-02-23T08:38:44.028Z,68.24
2016-02-23T08:39:43.999Z,68.44
2016-02-23T08:40:43.939Z,68.53
2016-02-23T08:41:43.864Z,68.63
2016-02-23T08:42:43.804Z,68.88
2016-02-23T08:43:43.760Z,69.29
2016-02-23T08:44:43.731Z,69.58
2016-02-23T08:45:43.687Z,69.39
2016-02-23T08:46:43.611Z,70.44
2016-02-23T08:47:43.567Z,69.87
2016-02-23T08:48:43.539Z,69.77
2016-02-23T08:49:43.447Z,69.26
2016-02-23T08:50:43.404Z,69.77
2016-02-23T08:51:43.327Z,69.58
2016-02-23T08:52:43.299Z,70.34
2016-02-23T08:53:43.271Z,70.31
2016-02-23T08:54:43.352Z,70.15
2016-02-23T08:55:43.120Z,70.34
2016-02-23T08:56:43.076Z,70.82
2016-02-23T08:57:42.969Z,70.59
2016-02-23T08:58:42.971Z,70.5
2016-02-23T08:59:42.959Z,70.69
2016-02-23T09:00:43.009Z,70.59
2016-02-23T09:01:42.812Z,70.59
2016-02-23T09:02:42.753Z,70.4
2016-02-23T09:03:42.725Z,70.4
2016-02-23T09:04:42.650Z,70.12
2016-02-23T09:05:42.703Z,70.4
2016-02-23T09:06:42.534Z,70.4
2016-02-23T09:07:42.475Z,70.31
2016-02-23T09:08:42.415Z,70.5
2016-02-23T09:09:42.355Z,70.5
2016-02-23T09:10:42.452Z,70.59
2016-02-23T09:11:42.377Z,70.5
2016-02-23T09:12:42.255Z,70.12
2016-02-23T09:13:42.210Z,70.31
2016-02-23T09:14:42.088Z,70.5
2016-02-23T09:15:42.059Z,70.5
2016-02-23T09:16:42.015Z,70.97
2016-02-23T09:17:41.924Z,70.97
2016-02-23T09:18:41.880Z,71.07
2016-02-23T09:19:41.851Z,72.21
2016-02-23T09:20:41.776Z,71.36
2016-02-23T09:21:41.825Z,71.73
2016-02-23T09:22:41.640Z,72.21
2016-02-23T09:23:41.627Z,72.12
2016-02-23T09:24:41.537Z,72.5
2016-02-23T09:25:41.571Z,72.21
2016-02-23T09:26:41.448Z,72.88
2016-02-23T09:27:41.404Z,73.26
2016-02-23T09:28:41.354Z,73.36
2016-02-23T09:29:41.282Z,73.07
2016-02-23T09:30:41.272Z,73.07
2016-02-23T09:31:41.137Z,73.65
2016-02-23T09:32:41.080Z,73.65
2016-02-23T09:33:41.011Z,73.93
2016-02-23T09:34:40.947Z,73.93
2016-02-23T09:35:40.913Z,74.21
2016-02-23T09:36:40.817Z,74.12
2016-02-23T09:37:40.753Z,74.5
2016-02-23T09:38:40.737Z,74.69
2016-02-23T09:39:40.644Z,74.21
2016-02-23T09:40:40.598Z,75.07
2016-02-23T09:41:40.535Z,75.32
2016-02-23T09:42:40.522Z,75.07
2016-02-23T09:43:40.398Z,75.23
2016-02-23T09:44:40.369Z,75.55
2016-02-23T09:45:40.325Z,75.16
2016-02-23T09:46:40.249Z,75.6
2016-02-23T09:47:40.188Z,75.64
2016-02-23T09:48:40.128Z,75.32
2016-02-23T09:49:40.084Z,76.03
2016-02-23T09:50:40.039Z,75.64
2016-02-23T09:51:39.994Z,75.7
2016-02-23T09:52:39.919Z,75.79
2016-02-23T09:53:39.968Z,75.04
2016-02-23T09:54:39.814Z,75.23
2016-02-23T09:55:39.755Z,75.32
2016-02-23T09:56:39.679Z,75.36
2016-02-23T09:57:39.635Z,75.04
2016-02-23T09:58:39.575Z,75.23
2016-02-23T09:59:39.765Z,75.23
2016-02-23T10:00:39.518Z,75.23
2016-02-23T10:01:39.474Z,75.32
2016-02-23T10:02:39.540Z,75.51
2016-02-23T10:03:39.307Z,75.51
2016-02-23T10:04:39.279Z,75.42
2016-02-23T10:05:39.298Z,75.32
2016-02-23T10:06:39.128Z,75.6
2016-02-23T10:07:39.115Z,74.84
2016-02-23T10:08:39.056Z,74.94
2016-02-23T10:09:39.042Z,74.4
2016-02-23T10:10:38.920Z,74.31
2016-02-23T10:11:38.892Z,74.4
2016-02-23T10:12:38.816Z,75.16
2016-02-23T10:13:38.772Z,75.23
2016-02-23T10:14:38.900Z,74.88
2016-02-23T10:15:38.856Z,75.26
2016-02-23T10:16:38.608Z,75.36
2016-02-23T10:17:38.595Z,74.94
2016-02-23T10:18:38.520Z,75.26
2016-02-23T10:19:38.460Z,74.6
2016-02-23T10:20:38.588Z,75.07
2016-02-23T10:21:38.355Z,75.16
2016-02-23T10:22:38.312Z,74.79
2016-02-23T10:23:38.455Z,75.07
2016-02-23T10:24:38.224Z,75.07
2016-02-23T10:25:38.147Z,75.26
2016-02-23T10:26:38.104Z,75.26
2016-02-23T10:27:38.028Z,75.45
2016-02-23T10:28:38.046Z,75.16
2016-02-23T10:29:37.924Z,75.26
2016-02-23T10:30:37.990Z,75.45
2016-02-23T10:31:37.835Z,74.98
2016-02-23T10:32:37.948Z,74.69
2016-02-23T10:33:38.044Z,74.79
2016-02-23T10:34:37.907Z,75.16
2016-02-23T10:35:37.596Z,74.98
2016-02-23T10:36:37.552Z,74.98
2016-02-23T10:37:37.477Z,74.88
2016-02-23T10:38:37.449Z,75.26
2016-02-23T10:39:37.420Z,75.26
2016-02-23T10:40:37.360Z,75.36
2016-02-23T10:41:37.285Z,75.26
2016-02-23T10:42:37.209Z,75.07
2016-02-23T10:43:37.165Z,75.64
2016-02-23T10:44:37.105Z,75.07
2016-02-23T10:45:37.045Z,75.36
2016-02-23T10:46:37.048Z,75.26
2016-02-23T10:47:36.801Z,75.84
2016-02-23T10:48:36.897Z,76.4
2016-02-23T10:49:36.853Z,76.5
2016-02-23T10:50:36.825Z,76.4
2016-02-23T10:51:36.733Z,76.03
2016-02-23T10:52:36.705Z,76.21
2016-02-23T10:53:36.770Z,76.12
2016-02-23T10:54:36.585Z,76.5
2016-02-23T10:55:36.557Z,75.55
2016-02-23T10:56:36.450Z,75.84
2016-02-23T10:57:36.406Z,75.93
2016-02-23T10:58:36.472Z,76.12
2016-02-23T10:59:36.302Z,75.64
2016-02-23T11:00:36.226Z,76.12
2016-02-23T11:01:36.167Z,76.21
2016-02-23T11:02:36.169Z,75.64
2016-02-23T11:03:36.078Z,76.03
2016-02-23T11:04:36.002Z,76.4
2016-02-23T11:05:35.959Z,76.5
2016-02-23T11:06:36.212Z,76.79
2016-02-23T11:07:36.121Z,76.69
2016-02-23T11:08:35.795Z,76.21
2016-02-23T11:09:35.751Z,76.59
2016-02-23T11:10:35.691Z,76.69
2016-02-23T11:11:35.741Z,77.45
2016-02-23T11:12:35.571Z,76.69
2016-02-23T11:13:35.652Z,76.69
2016-02-23T11:14:35.451Z,77.07
2016-02-23T11:15:35.454Z,76.69
2016-02-23T11:16:35.331Z,77.03
2016-02-23T11:17:35.287Z,77.36
2016-02-23T11:18:35.259Z,77.45
2016-02-23T11:19:35.184Z,77.26
2016-02-23T11:20:35.155Z,77.64
2016-02-23T11:21:35.080Z,78.03
2016-02-23T11:22:35.036Z,77.83
2016-02-23T11:23:34.960Z,78.31
2016-02-23T11:24:34.916Z,77.8
2016-02-23T11:25:34.934Z,78.03
2016-02-23T11:26:34.812Z,78.59
2016-02-23T11:27:34.736Z,78.31
2016-02-23T11:28:34.739Z,78.03
2016-02-23T11:29:34.774Z,78.78
2016-02-23T11:30:34.588Z,78.98
2016-02-23T11:31:34.592Z,78.98
2016-02-23T11:32:34.532Z,79.07
2016-02-23T11:33:34.456Z,79.64
2016-02-23T11:34:34.396Z,79.17
2016-02-23T11:35:34.305Z,78.98
2016-02-23T11:36:34.276Z,79.07
2016-02-23T11:37:34.217Z,79.64
2016-02-23T11:38:34.173Z,79.74
2016-02-23T11:39:34.129Z,80.22
2016-02-23T11:40:34.053Z,79.83
2016-02-23T11:41:33.993Z,79.74
2016-02-23T11:42:34.151Z,80.41
2016-02-23T11:43:33.889Z,79.93
2016-02-23T11:44:33.830Z,79.74
2016-02-23T11:45:33.801Z,79.83
2016-02-23T11:46:33.726Z,79.64
2016-02-23T11:47:33.790Z,79.64
2016-02-23T11:48:33.637Z,79.74
2016-02-23T11:49:33.623Z,79.46
2016-02-23T11:50:33.705Z,79.64
2016-02-23T11:51:33.503Z,80.5
2016-02-23T11:52:33.539Z,80.31
2016-02-23T11:53:33.433Z,79.55
2016-02-23T11:54:33.358Z,78.88
2016-02-23T11:55:33.300Z,79.17
2016-02-23T11:56:33.738Z,79.07
2016-02-23T11:57:33.204Z,78.88
2016-02-23T11:58:33.129Z,78.69
2016-02-23T11:59:33.053Z,78.59
2016-02-23T12:00:33.181Z,78.41
2016-02-23T12:01:33.246Z,78.69
2016-02-23T12:02:33.015Z,77.93
2016-02-23T12:03:33.033Z,77.83
2016-02-23T12:04:32.942Z,77.83
2016-02-23T12:05:32.773Z,77.93
2016-02-23T12:06:32.856Z,77.55
2016-02-23T12:07:32.624Z,77.36
2016-02-23T12:08:32.580Z,77.17
2016-02-23T12:09:32.535Z,77.36
2016-02-23T12:10:32.475Z,78.03
2016-02-23T12:11:32.399Z,77.83
2016-02-23T12:12:32.371Z,76.98
2016-02-23T12:13:32.327Z,77.17
2016-02-23T12:14:32.298Z,77.26
2016-02-23T12:15:32.207Z,77.45
2016-02-23T12:16:32.132Z,76.88
2016-02-23T12:17:32.087Z,77.07
2016-02-23T12:18:32.232Z,77.26
2016-02-23T12:19:32.000Z,77.45
2016-02-23T12:20:32.065Z,76.69
2016-02-23T12:21:31.865Z,76.4
2016-02-23T12:22:31.882Z,76.88
2016-02-23T12:23:31.776Z,76.98
2016-02-23T12:24:31.903Z,76.88
2016-02-23T12:25:31.641Z,77.55
2016-02-23T12:26:31.707Z,76.69
2016-02-23T12:27:31.553Z,76.03
2016-02-23T12:28:31.524Z,75.93
2016-02-23T12:29:31.417Z,75.93
2016-02-23T12:30:31.404Z,75.3
2016-02-23T12:31:31.329Z,75.4
2016-02-23T12:32:31.285Z,75.2
2016-02-23T12:33:31.225Z,75.59
2016-02-23T12:34:31.197Z,75.3
2016-02-23T12:35:31.136Z,75.01
2016-02-23T12:36:31.217Z,75.01
2016-02-23T12:37:31.000Z,74.54
2016-02-23T12:38:31.208Z,74.73
2016-02-23T12:39:31.304Z,74.67
2016-02-23T12:40:30.900Z,73.62
2016-02-23T12:41:30.809Z,74.29
2016-02-23T12:42:30.780Z,74.19
2016-02-23T12:43:30.721Z,74.1
2016-02-23T12:44:30.661Z,73.14
2016-02-23T12:45:30.616Z,72.86
2016-02-23T12:46:30.556Z,72.96
2016-02-23T12:47:30.513Z,73.33
2016-02-23T12:48:30.438Z,73.24
2016-02-23T12:49:30.377Z,72.86
2016-02-23T12:50:30.302Z,72.38
2016-02-23T12:51:30.257Z,73.43
2016-02-23T12:52:30.230Z,72.96
2016-02-23T12:53:30.185Z,72.86
2016-02-23T12:54:30.141Z,72.86
2016-02-23T12:55:30.065Z,72.96